sensor_id;sensor_type;location;lat;lon;timestamp;pressure;altitude;pressure_sealevel;temperature;humidity
76297;BME280;65104;52.994;6.552;2023-07-20T00:01:12;101393.47;;;14.42;100.00
76297;BME280;65104;52.994;6.552;2023-07-20T00:03:38;101393.47;;;14.40;100.00
76297;BME280;65104;52.994;6.552;2023-07-20T00:06:03;101395.97;;;14.37;100.00
76297;BME280;65104;52.994;6.552;2023-07-20T00:08:29;101394.19;;;14.33;100.00
76297;BME280;65104;52.994;6.552;2023-07-20T00:10:55;101397.63;;;14.32;100.00
76297;BME280;65104;52.994;6.552;2023-07-20T00:13:20;101393.28;;;14.28;100.00
76297;BME280;65104;52.994;6.552;2023-07-20T00:15:46;101391.50;;;14.22;100.00
76297;BME280;65104;52.994;6.552;2023-07-20T00:18:11;101404.41;;;14.21;100.00
76297;BME280;65104;52.994;6.552;2023-07-20T00:20:37;101395.78;;;14.23;100.00
76297;BME280;65104;52.994;6.552;2023-07-20T00:23:03;101395.81;;;14.22;100.00
76297;BME280;65104;52.994;6.552;2023-07-20T00:25:28;101388.75;;;14.10;100.00
76297;BME280;65104;52.994;6.552;2023-07-20T00:27:54;101392.09;;;14.02;100.00
76297;BME280;65104;52.994;6.552;2023-07-20T00:30:19;101397.06;;;13.86;100.00
76297;BME280;65104;52.994;6.552;2023-07-20T00:32:45;101390.16;;;13.85;100.00
76297;BME280;65104;52.994;6.552;2023-07-20T00:35:11;101388.56;;;13.95;100.00
76297;BME280;65104;52.994;6.552;2023-07-20T00:37:37;101398.13;;;14.02;100.00
76297;BME280;65104;52.994;6.552;2023-07-20T00:40:03;101386.94;;;14.05;100.00
76297;BME280;65104;52.994;6.552;2023-07-20T00:42:34;101382.53;;;13.98;100.00
76297;BME280;65104;52.994;6.552;2023-07-20T00:45:00;101390.41;;;14.07;100.00
76297;BME280;65104;52.994;6.552;2023-07-20T00:47:26;101393.00;;;14.07;100.00
76297;BME280;65104;52.994;6.552;2023-07-20T00:49:52;101392.06;;;14.00;100.00
76297;BME280;65104;52.994;6.552;2023-07-20T00:52:19;101397.19;;;13.99;100.00
76297;BME280;65104;52.994;6.552;2023-07-20T00:54:45;101397.19;;;13.96;100.00
76297;BME280;65104;52.994;6.552;2023-07-20T00:57:14;101396.28;;;13.94;100.00
76297;BME280;65104;52.994;6.552;2023-07-20T00:59:40;101392.72;;;13.85;100.00
76297;BME280;65104;52.994;6.552;2023-07-20T01:02:05;101394.34;;;13.77;100.00
76297;BME280;65104;52.994;6.552;2023-07-20T01:04:31;101401.13;;;13.72;100.00
76297;BME280;65104;52.994;6.552;2023-07-20T01:10:04;101395.78;;;13.60;100.00
76297;BME280;65104;52.994;6.552;2023-07-20T01:12:42;101399.16;;;13.56;100.00
76297;BME280;65104;52.994;6.552;2023-07-20T01:15:09;101400.78;;;13.51;100.00
76297;BME280;65104;52.994;6.552;2023-07-20T01:17:35;101403.34;;;13.48;100.00
76297;BME280;65104;52.994;6.552;2023-07-20T01:20:01;101405.13;;;13.50;100.00
76297;BME280;65104;52.994;6.552;2023-07-20T01:30:46;101408.59;;;13.54;100.00
76297;BME280;65104;52.994;6.552;2023-07-20T01:33:16;101396.50;;;13.50;100.00
76297;BME280;65104;52.994;6.552;2023-07-20T01:35:43;101406.72;;;13.45;100.00
76297;BME280;65104;52.994;6.552;2023-07-20T01:38:11;101399.72;;;13.37;100.00
76297;BME280;65104;52.994;6.552;2023-07-20T01:40:38;101396.34;;;13.41;100.00
76297;BME280;65104;52.994;6.552;2023-07-20T01:43:03;101399.72;;;13.37;100.00
76297;BME280;65104;52.994;6.552;2023-07-20T01:45:29;101396.97;;;13.28;100.00
76297;BME280;65104;52.994;6.552;2023-07-20T01:47:54;101403.25;;;13.42;100.00
76297;BME280;65104;52.994;6.552;2023-07-20T01:50:20;101397.06;;;13.32;100.00
76297;BME280;65104;52.994;6.552;2023-07-20T01:52:45;101401.34;;;13.30;100.00
76297;BME280;65104;52.994;6.552;2023-07-20T01:55:10;101400.63;;;13.39;100.00
76297;BME280;65104;52.994;6.552;2023-07-20T01:57:36;101395.53;;;13.42;100.00
76297;BME280;65104;52.994;6.552;2023-07-20T02:00:01;101394.50;;;13.32;100.00
76297;BME280;65104;52.994;6.552;2023-07-20T02:02:27;101398.63;;;13.24;100.00
76297;BME280;65104;52.994;6.552;2023-07-20T02:04:53;101395.09;;;13.18;100.00
76297;BME280;65104;52.994;6.552;2023-07-20T02:07:18;101396.91;;;13.22;100.00
76297;BME280;65104;52.994;6.552;2023-07-20T02:09:44;101397.63;;;13.14;100.00
76297;BME280;65104;52.994;6.552;2023-07-20T02:12:09;101400.44;;;13.28;100.00
76297;BME280;65104;52.994;6.552;2023-07-20T02:14:35;101400.38;;;13.25;100.00
76297;BME280;65104;52.994;6.552;2023-07-20T02:17:00;101402.88;;;13.21;100.00
76297;BME280;65104;52.994;6.552;2023-07-20T02:19:26;101400.03;;;13.05;100.00
76297;BME280;65104;52.994;6.552;2023-07-20T02:21:52;101401.72;;;13.05;100.00
76297;BME280;65104;52.994;6.552;2023-07-20T02:24:18;101405.03;;;12.96;100.00
76297;BME280;65104;52.994;6.552;2023-07-20T02:26:43;101404.91;;;12.92;100.00
76297;BME280;65104;52.994;6.552;2023-07-20T02:29:09;101416.00;;;12.86;100.00
76297;BME280;65104;52.994;6.552;2023-07-20T02:31:37;101405.72;;;12.88;100.00
76297;BME280;65104;52.994;6.552;2023-07-20T02:34:02;101402.25;;;12.86;100.00
76297;BME280;65104;52.994;6.552;2023-07-20T02:36:28;101406.38;;;12.77;100.00
76297;BME280;65104;52.994;6.552;2023-07-20T02:38:53;101402.72;;;12.66;100.00
76297;BME280;65104;52.994;6.552;2023-07-20T02:41:19;101401.94;;;12.69;100.00
76297;BME280;65104;52.994;6.552;2023-07-20T02:43:45;101395.94;;;12.71;100.00
76297;BME280;65104;52.994;6.552;2023-07-20T02:46:10;101404.47;;;12.67;100.00
76297;BME280;65104;52.994;6.552;2023-07-20T02:48:36;101406.94;;;12.63;100.00
76297;BME280;65104;52.994;6.552;2023-07-20T02:51:01;101413.91;;;12.67;100.00
76297;BME280;65104;52.994;6.552;2023-07-20T02:53:26;101412.16;;;12.66;100.00
76297;BME280;65104;52.994;6.552;2023-07-20T02:55:52;101417.13;;;12.57;100.00
76297;BME280;65104;52.994;6.552;2023-07-20T02:58:17;101418.78;;;12.52;100.00
76297;BME280;65104;52.994;6.552;2023-07-20T03:00:43;101414.50;;;12.52;100.00
76297;BME280;65104;52.994;6.552;2023-07-20T03:03:10;101415.41;;;12.56;100.00
76297;BME280;65104;52.994;6.552;2023-07-20T03:05:36;101414.41;;;12.49;100.00
76297;BME280;65104;52.994;6.552;2023-07-20T03:08:05;101420.31;;;12.44;100.00
76297;BME280;65104;52.994;6.552;2023-07-20T03:10:31;101421.84;;;12.34;100.00
76297;BME280;65104;52.994;6.552;2023-07-20T03:12:57;101420.84;;;12.29;100.00
76297;BME280;65104;52.994;6.552;2023-07-20T03:15:22;101423.19;;;12.18;100.00
76297;BME280;65104;52.994;6.552;2023-07-20T03:17:47;101429.28;;;12.22;100.00
76297;BME280;65104;52.994;6.552;2023-07-20T03:20:13;101424.94;;;12.19;100.00
76297;BME280;65104;52.994;6.552;2023-07-20T03:22:38;101426.97;;;12.32;100.00
76297;BME280;65104;52.994;6.552;2023-07-20T03:25:04;101418.22;;;12.24;100.00
76297;BME280;65104;52.994;6.552;2023-07-20T03:27:29;101426.53;;;12.13;100.00
76297;BME280;65104;52.994;6.552;2023-07-20T03:29:55;101420.44;;;12.08;100.00
76297;BME280;65104;52.994;6.552;2023-07-20T03:32:20;101428.03;;;12.03;100.00
76297;BME280;65104;52.994;6.552;2023-07-20T03:34:46;101421.06;;;11.97;100.00
76297;BME280;65104;52.994;6.552;2023-07-20T03:37:13;101417.44;;;11.91;100.00
76297;BME280;65104;52.994;6.552;2023-07-20T03:39:38;101422.91;;;12.05;100.00
76297;BME280;65104;52.994;6.552;2023-07-20T03:42:04;101419.34;;;11.98;100.00
76297;BME280;65104;52.994;6.552;2023-07-20T03:44:30;101423.63;;;11.97;100.00
76297;BME280;65104;52.994;6.552;2023-07-20T03:46:55;101426.16;;;11.96;100.00
76297;BME280;65104;52.994;6.552;2023-07-20T03:49:21;101426.09;;;11.93;100.00
76297;BME280;65104;52.994;6.552;2023-07-20T03:51:46;101429.56;;;11.95;100.00
76297;BME280;65104;52.994;6.552;2023-07-20T03:54:11;101424.41;;;11.95;100.00
76297;BME280;65104;52.994;6.552;2023-07-20T03:56:37;101423.53;;;11.94;100.00
76297;BME280;65104;52.994;6.552;2023-07-20T03:59:02;101424.53;;;12.01;100.00
76297;BME280;65104;52.994;6.552;2023-07-20T04:01:28;101427.06;;;11.99;100.00
76297;BME280;65104;52.994;6.552;2023-07-20T04:03:53;101428.84;;;12.02;100.00
76297;BME280;65104;52.994;6.552;2023-07-20T04:06:19;101426.16;;;11.96;100.00
76297;BME280;65104;52.994;6.552;2023-07-20T04:08:44;101414.94;;;11.94;100.00
76297;BME280;65104;52.994;6.552;2023-07-20T04:11:12;101430.44;;;11.95;100.00
76297;BME280;65104;52.994;6.552;2023-07-20T04:13:38;101431.97;;;11.87;100.00
76297;BME280;65104;52.994;6.552;2023-07-20T04:16:03;101429.34;;;11.86;100.00
76297;BME280;65104;52.994;6.552;2023-07-20T04:18:28;101423.47;;;11.91;100.00
76297;BME280;65104;52.994;6.552;2023-07-20T04:20:54;101433.72;;;11.88;100.00
76297;BME280;65104;52.994;6.552;2023-07-20T04:23:19;101431.09;;;11.87;100.00
76297;BME280;65104;52.994;6.552;2023-07-20T04:25:44;101424.22;;;11.86;100.00
76297;BME280;65104;52.994;6.552;2023-07-20T04:28:10;101432.09;;;11.93;100.00
76297;BME280;65104;52.994;6.552;2023-07-20T04:30:36;101436.31;;;11.90;100.00
76297;BME280;65104;52.994;6.552;2023-07-20T04:33:03;101438.00;;;11.88;100.00
76297;BME280;65104;52.994;6.552;2023-07-20T04:38:14;101441.44;;;11.88;100.00
76297;BME280;65104;52.994;6.552;2023-07-20T04:40:42;101445.72;;;11.88;100.00
76297;BME280;65104;52.994;6.552;2023-07-20T04:43:08;101447.41;;;11.87;100.00
76297;BME280;65104;52.994;6.552;2023-07-20T04:45:33;101449.19;;;11.91;100.00
76297;BME280;65104;52.994;6.552;2023-07-20T04:47:59;101441.59;;;11.96;100.00
76297;BME280;65104;52.994;6.552;2023-07-20T04:50:24;101441.47;;;11.90;100.00
76297;BME280;65104;52.994;6.552;2023-07-20T04:52:50;101458.03;;;12.02;100.00
76297;BME280;65104;52.994;6.552;2023-07-20T04:55:15;101457.31;;;12.08;100.00
76297;BME280;65104;52.994;6.552;2023-07-20T04:57:41;101458.38;;;12.18;100.00
76297;BME280;65104;52.994;6.552;2023-07-20T05:00:07;101452.22;;;12.11;100.00
76297;BME280;65104;52.994;6.552;2023-07-20T05:02:33;101460.19;;;12.22;100.00
76297;BME280;65104;52.994;6.552;2023-07-20T05:04:58;101452.44;;;12.20;100.00
76297;BME280;65104;52.994;6.552;2023-07-20T05:07:23;101464.59;;;12.27;100.00
76297;BME280;65104;52.994;6.552;2023-07-20T05:09:49;101457.84;;;12.32;100.00
76297;BME280;65104;52.994;6.552;2023-07-20T05:12:14;101468.47;;;12.48;100.00
76297;BME280;65104;52.994;6.552;2023-07-20T05:14:39;101462.59;;;12.55;100.00
76297;BME280;65104;52.994;6.552;2023-07-20T05:17:06;101466.09;;;12.57;100.00
76297;BME280;65104;52.994;6.552;2023-07-20T05:19:32;101463.63;;;12.63;100.00
76297;BME280;65104;52.994;6.552;2023-07-20T05:21:57;101454.22;;;12.65;100.00
76297;BME280;65104;52.994;6.552;2023-07-20T05:24:22;101453.63;;;12.76;100.00
76297;BME280;65104;52.994;6.552;2023-07-20T05:26:48;101459.78;;;12.85;100.00
76297;BME280;65104;52.994;6.552;2023-07-20T05:29:13;101458.16;;;12.88;100.00
76297;BME280;65104;52.994;6.552;2023-07-20T05:31:39;101452.25;;;12.95;100.00
76297;BME280;65104;52.994;6.552;2023-07-20T05:34:04;101447.03;;;12.92;100.00
76297;BME280;65104;52.994;6.552;2023-07-20T05:36:30;101450.69;;;13.03;100.00
76297;BME280;65104;52.994;6.552;2023-07-20T05:38:56;101453.38;;;13.09;100.00
76297;BME280;65104;52.994;6.552;2023-07-20T05:41:21;101460.28;;;13.12;100.00
76297;BME280;65104;52.994;6.552;2023-07-20T05:43:48;101455.25;;;13.17;100.00
76297;BME280;65104;52.994;6.552;2023-07-20T05:46:13;101460.50;;;13.21;100.00
76297;BME280;65104;52.994;6.552;2023-07-20T05:48:38;101454.56;;;13.27;100.00
76297;BME280;65104;52.994;6.552;2023-07-20T05:51:05;101462.34;;;13.28;100.00
76297;BME280;65104;52.994;6.552;2023-07-20T05:53:30;101457.09;;;13.25;100.00
76297;BME280;65104;52.994;6.552;2023-07-20T05:55:56;101461.47;;;13.28;100.00
76297;BME280;65104;52.994;6.552;2023-07-20T05:58:21;101465.09;;;13.39;100.00
76297;BME280;65104;52.994;6.552;2023-07-20T06:00:48;101454.16;;;13.53;100.00
76297;BME280;65104;52.994;6.552;2023-07-20T06:03:14;101451.56;;;13.52;100.00
76297;BME280;65104;52.994;6.552;2023-07-20T06:05:41;101462.19;;;13.72;100.00
76297;BME280;65104;52.994;6.552;2023-07-20T06:08:07;101463.19;;;13.80;100.00
76297;BME280;65104;52.994;6.552;2023-07-20T06:10:32;101463.41;;;13.94;100.00
76297;BME280;65104;52.994;6.552;2023-07-20T06:12:58;101465.19;;;13.99;100.00
76297;BME280;65104;52.994;6.552;2023-07-20T06:15:28;101457.63;;;14.10;100.00
76297;BME280;65104;52.994;6.552;2023-07-20T06:17:54;101457.66;;;14.13;100.00
76297;BME280;65104;52.994;6.552;2023-07-20T06:20:21;101455.22;;;14.23;100.00
76297;BME280;65104;52.994;6.552;2023-07-20T06:22:47;101458.00;;;14.37;100.00
76297;BME280;65104;52.994;6.552;2023-07-20T06:25:13;101455.59;;;14.48;100.00
76297;BME280;65104;52.994;6.552;2023-07-20T06:27:38;101449.59;;;14.52;100.00
76297;BME280;65104;52.994;6.552;2023-07-20T06:30:04;101450.66;;;14.69;100.00
76297;BME280;65104;52.994;6.552;2023-07-20T06:32:29;101454.25;;;14.80;100.00
76297;BME280;65104;52.994;6.552;2023-07-20T06:34:54;101457.66;;;14.79;100.00
76297;BME280;65104;52.994;6.552;2023-07-20T06:37:20;101453.53;;;14.95;100.00
76297;BME280;65104;52.994;6.552;2023-07-20T06:39:45;101453.78;;;15.18;100.00
76297;BME280;65104;52.994;6.552;2023-07-20T06:42:11;101452.06;;;15.18;100.00
76297;BME280;65104;52.994;6.552;2023-07-20T06:44:36;101457.28;;;15.24;100.00
76297;BME280;65104;52.994;6.552;2023-07-20T06:47:02;101450.50;;;15.35;100.00
76297;BME280;65104;52.994;6.552;2023-07-20T06:49:27;101454.91;;;15.50;100.00
76297;BME280;65104;52.994;6.552;2023-07-20T06:51:53;101452.41;;;15.55;100.00
76297;BME280;65104;52.994;6.552;2023-07-20T06:54:18;101453.34;;;15.64;100.00
76297;BME280;65104;52.994;6.552;2023-07-20T06:56:44;101459.44;;;15.71;100.00
76297;BME280;65104;52.994;6.552;2023-07-20T06:59:09;101461.31;;;15.95;100.00
76297;BME280;65104;52.994;6.552;2023-07-20T07:01:34;101454.47;;;16.01;100.00
76297;BME280;65104;52.994;6.552;2023-07-20T07:04:00;101456.19;;;15.99;100.00
76297;BME280;65104;52.994;6.552;2023-07-20T07:06:25;101451.94;;;16.09;100.00
76297;BME280;65104;52.994;6.552;2023-07-20T07:08:53;101464.75;;;15.94;100.00
76297;BME280;65104;52.994;6.552;2023-07-20T07:11:18;101461.47;;;16.21;100.00
76297;BME280;65104;52.994;6.552;2023-07-20T07:13:44;101470.25;;;16.44;100.00
76297;BME280;65104;52.994;6.552;2023-07-20T07:16:12;101464.22;;;16.49;100.00
76297;BME280;65104;52.994;6.552;2023-07-20T07:18:37;101464.25;;;16.56;100.00
76297;BME280;65104;52.994;6.552;2023-07-20T07:21:05;101467.81;;;16.70;100.00
76297;BME280;65104;52.994;6.552;2023-07-20T07:23:30;101459.94;;;16.59;100.00
76297;BME280;65104;52.994;6.552;2023-07-20T07:25:56;101461.66;;;16.51;100.00
76297;BME280;65104;52.994;6.552;2023-07-20T07:28:21;101473.88;;;16.84;100.00
76297;BME280;65104;52.994;6.552;2023-07-20T07:30:47;101475.63;;;16.83;100.00
76297;BME280;65104;52.994;6.552;2023-07-20T07:33:12;101479.97;;;16.94;100.00
76297;BME280;65104;52.994;6.552;2023-07-20T07:35:38;101473.97;;;17.14;100.00
76297;BME280;65104;52.994;6.552;2023-07-20T07:38:04;101478.31;;;17.21;100.00
76297;BME280;65104;52.994;6.552;2023-07-20T07:40:31;101473.97;;;17.11;100.00
76297;BME280;65104;52.994;6.552;2023-07-20T07:42:56;101476.56;;;17.20;100.00
76297;BME280;65104;52.994;6.552;2023-07-20T07:45:22;101474.00;;;17.45;100.00
76297;BME280;65104;52.994;6.552;2023-07-20T07:47:47;101487.84;;;17.24;100.00
76297;BME280;65104;52.994;6.552;2023-07-20T07:50:12;101492.16;;;17.31;100.00
76297;BME280;65104;52.994;6.552;2023-07-20T07:52:38;101477.50;;;17.44;99.24
76297;BME280;65104;52.994;6.552;2023-07-20T07:55:03;101477.47;;;17.39;100.00
76297;BME280;65104;52.994;6.552;2023-07-20T07:57:29;101479.19;;;17.46;100.00
76297;BME280;65104;52.994;6.552;2023-07-20T07:59:54;101478.34;;;17.53;100.00
76297;BME280;65104;52.994;6.552;2023-07-20T08:02:20;101479.22;;;17.52;100.00
76297;BME280;65104;52.994;6.552;2023-07-20T08:04:46;101477.47;;;17.59;100.00
76297;BME280;65104;52.994;6.552;2023-07-20T08:07:11;101476.63;;;17.65;98.01
76297;BME280;65104;52.994;6.552;2023-07-20T08:09:36;101480.97;;;17.66;95.46
76297;BME280;65104;52.994;6.552;2023-07-20T08:12:02;101480.13;;;17.62;93.87
76297;BME280;65104;52.994;6.552;2023-07-20T08:14:28;101484.44;;;17.86;97.73
76297;BME280;65104;52.994;6.552;2023-07-20T08:16:54;101482.72;;;17.88;99.24
76297;BME280;65104;52.994;6.552;2023-07-20T08:19:19;101489.59;;;17.58;94.35
76297;BME280;65104;52.994;6.552;2023-07-20T08:21:45;101487.88;;;17.35;88.79
76297;BME280;65104;52.994;6.552;2023-07-20T08:24:12;101487.84;;;17.29;85.33
76297;BME280;65104;52.994;6.552;2023-07-20T08:26:38;101488.72;;;17.34;88.94
76297;BME280;65104;52.994;6.552;2023-07-20T08:29:03;101487.88;;;17.42;84.93
76297;BME280;65104;52.994;6.552;2023-07-20T08:31:29;101478.38;;;17.67;86.89
76297;BME280;65104;52.994;6.552;2023-07-20T08:33:54;101482.72;;;17.70;82.26
76297;BME280;65104;52.994;6.552;2023-07-20T08:36:22;101480.97;;;17.69;83.38
76297;BME280;65104;52.994;6.552;2023-07-20T08:38:47;101488.78;;;17.79;82.73
76297;BME280;65104;52.994;6.552;2023-07-20T08:41:14;101486.16;;;17.84;80.72
76297;BME280;65104;52.994;6.552;2023-07-20T08:43:41;101485.31;;;17.89;74.13
76297;BME280;65104;52.994;6.552;2023-07-20T08:46:08;101486.97;;;18.10;74.27
76297;BME280;65104;52.994;6.552;2023-07-20T08:48:35;101480.03;;;18.33;74.79
76297;BME280;65104;52.994;6.552;2023-07-20T08:51:01;101477.34;;;18.47;70.26
76297;BME280;65104;52.994;6.552;2023-07-20T08:53:30;101482.41;;;18.88;70.21
76297;BME280;65104;52.994;6.552;2023-07-20T08:55:57;101482.28;;;19.13;68.72
76297;BME280;65104;52.994;6.552;2023-07-20T08:58:25;101475.94;;;19.52;71.09
76297;BME280;65104;52.994;6.552;2023-07-20T09:00:52;101471.56;;;19.58;65.52
76297;BME280;65104;52.994;6.552;2023-07-20T09:03:18;101470.53;;;19.76;67.86
76297;BME280;65104;52.994;6.552;2023-07-20T09:05:44;101470.56;;;19.70;69.66
76297;BME280;65104;52.994;6.552;2023-07-20T09:08:10;101477.00;;;19.23;69.76
76297;BME280;65104;52.994;6.552;2023-07-20T09:10:35;101487.69;;;18.73;70.04
76297;BME280;65104;52.994;6.552;2023-07-20T09:13:01;101481.56;;;18.88;71.48
76297;BME280;65104;52.994;6.552;2023-07-20T09:15:26;101484.75;;;19.32;65.52
76297;BME280;65104;52.994;6.552;2023-07-20T09:17:52;101477.41;;;19.83;64.12
76297;BME280;65104;52.994;6.552;2023-07-20T09:20:20;101484.59;;;19.55;63.08
76297;BME280;65104;52.994;6.552;2023-07-20T09:22:45;101481.13;;;19.55;55.22
76297;BME280;65104;52.994;6.552;2023-07-20T09:25:13;101476.56;;;19.82;56.48
76297;BME280;65104;52.994;6.552;2023-07-20T09:27:40;101476.22;;;20.14;57.68
76297;BME280;65104;52.994;6.552;2023-07-20T09:30:07;101477.16;;;20.10;55.46
76297;BME280;65104;52.994;6.552;2023-07-20T09:32:45;101471.97;;;20.84;60.68
76297;BME280;65104;52.994;6.552;2023-07-20T09:35:18;101474.09;;;21.16;58.71
76297;BME280;65104;52.994;6.552;2023-07-20T09:37:58;101483.41;;;20.72;58.15
76297;BME280;65104;52.994;6.552;2023-07-20T09:40:25;101482.44;;;20.03;65.03
76297;BME280;65104;52.994;6.552;2023-07-20T09:42:53;101478.56;;;19.44;66.21
76297;BME280;65104;52.994;6.552;2023-07-20T09:45:28;101482.03;;;19.51;70.37
76297;BME280;65104;52.994;6.552;2023-07-20T09:48:03;101474.19;;;19.51;63.96
76297;BME280;65104;52.994;6.552;2023-07-20T09:50:28;101474.44;;;20.19;59.57
76297;BME280;65104;52.994;6.552;2023-07-20T09:52:53;101477.47;;;20.61;57.86
76297;BME280;65104;52.994;6.552;2023-07-20T09:55:19;101474.22;;;21.08;54.80
76297;BME280;65104;52.994;6.552;2023-07-20T09:57:46;101469.66;;;21.76;51.91
76297;BME280;65104;52.994;6.552;2023-07-20T10:00:12;101470.19;;;21.96;50.37
76297;BME280;65104;52.994;6.552;2023-07-20T10:02:45;101469.88;;;22.15;53.36
76297;BME280;65104;52.994;6.552;2023-07-20T10:05:14;101474.09;;;21.19;49.50
76297;BME280;65104;52.994;6.552;2023-07-20T10:07:46;101478.72;;;20.25;52.34
76297;BME280;65104;52.994;6.552;2023-07-20T10:10:14;101479.50;;;20.36;56.51
76297;BME280;65104;52.994;6.552;2023-07-20T10:12:41;101470.22;;;20.08;57.35
76297;BME280;65104;52.994;6.552;2023-07-20T10:15:28;101473.25;;;21.15;57.75
76297;BME280;65104;52.994;6.552;2023-07-20T10:18:18;101481.06;;;20.51;60.57
76297;BME280;65104;52.994;6.552;2023-07-20T10:20:49;101477.88;;;20.23;64.50
76297;BME280;65104;52.994;6.552;2023-07-20T10:23:17;101472.91;;;20.02;67.02
76297;BME280;65104;52.994;6.552;2023-07-20T10:25:42;101481.13;;;19.55;67.65
76297;BME280;65104;52.994;6.552;2023-07-20T10:28:10;101487.00;;;19.79;67.73
76297;BME280;65104;52.994;6.552;2023-07-20T10:30:36;101477.66;;;19.53;65.80
76297;BME280;65104;52.994;6.552;2023-07-20T10:33:02;101484.53;;;19.63;68.04
76297;BME280;65104;52.994;6.552;2023-07-20T10:35:28;101474.00;;;19.76;66.64
76297;BME280;65104;52.994;6.552;2023-07-20T10:37:59;101473.22;;;19.68;67.06
76297;BME280;65104;52.994;6.552;2023-07-20T10:40:38;101475.78;;;19.70;66.12
76297;BME280;65104;52.994;6.552;2023-07-20T10:43:05;101468.88;;;20.51;63.94
76297;BME280;65104;52.994;6.552;2023-07-20T10:47:58;101471.03;;;20.86;59.97
76297;BME280;65104;52.994;6.552;2023-07-20T10:50:25;101467.13;;;21.19;61.25
76297;BME280;65104;52.994;6.552;2023-07-20T10:53:10;101472.25;;;21.78;55.13
76297;BME280;65104;52.994;6.552;2023-07-20T10:55:36;101463.22;;;21.98;55.64
76297;BME280;65104;52.994;6.552;2023-07-20T10:58:11;101461.56;;;22.37;52.49
76297;BME280;65104;52.994;6.552;2023-07-20T11:01:04;101458.63;;;22.54;51.48
76297;BME280;65104;52.994;6.552;2023-07-20T11:03:36;101452.59;;;23.28;49.50
76297;BME280;65104;52.994;6.552;2023-07-20T11:11:29;101459.44;;;22.12;54.06
76297;BME280;65104;52.994;6.552;2023-07-20T11:16:44;101455.34;;;20.88;55.34
76297;BME280;65104;52.994;6.552;2023-07-20T11:19:22;101461.66;;;20.75;57.31
76297;BME280;65104;52.994;6.552;2023-07-20T11:21:58;101464.63;;;20.43;55.19
76297;BME280;65104;52.994;6.552;2023-07-20T11:24:23;101467.47;;;20.21;55.99
76297;BME280;65104;52.994;6.552;2023-07-20T11:26:51;101468.56;;;19.99;58.61
76297;BME280;65104;52.994;6.552;2023-07-20T11:29:18;101469.63;;;19.78;59.36
76297;BME280;65104;52.994;6.552;2023-07-20T11:31:45;101472.44;;;19.59;60.76
76297;BME280;65104;52.994;6.552;2023-07-20T11:34:12;101464.63;;;19.54;63.35
76297;BME280;65104;52.994;6.552;2023-07-20T11:36:40;101471.50;;;19.67;63.00
76297;BME280;65104;52.994;6.552;2023-07-20T11:39:07;101462.81;;;19.67;62.01
76297;BME280;65104;52.994;6.552;2023-07-20T11:41:34;101462.03;;;19.51;63.69
76297;BME280;65104;52.994;6.552;2023-07-20T11:43:59;101468.13;;;19.53;61.74
76297;BME280;65104;52.994;6.552;2023-07-20T11:46:25;101460.19;;;20.51;59.26
76297;BME280;65104;52.994;6.552;2023-07-20T11:48:56;101456.84;;;21.62;59.39
76297;BME280;65104;52.994;6.552;2023-07-20T11:51:21;101456.06;;;22.06;53.00
76297;BME280;65104;52.994;6.552;2023-07-20T11:53:48;101447.22;;;22.55;51.87
76297;BME280;65104;52.994;6.552;2023-07-20T11:56:13;101448.81;;;21.73;51.61
76297;BME280;65104;52.994;6.552;2023-07-20T11:58:43;101445.03;;;20.79;52.08
76297;BME280;65104;52.994;6.552;2023-07-20T12:01:09;101449.75;;;20.52;54.88
76297;BME280;65104;52.994;6.552;2023-07-20T12:03:36;101455.16;;;20.37;55.06
76297;BME280;65104;52.994;6.552;2023-07-20T12:06:11;101446.38;;;20.44;54.25
76297;BME280;65104;52.994;6.552;2023-07-20T12:08:43;101443.75;;;20.43;53.43
76297;BME280;65104;52.994;6.552;2023-07-20T12:11:09;101443.34;;;21.38;54.41
76297;BME280;65104;52.994;6.552;2023-07-20T12:13:44;101436.66;;;21.18;56.93
76297;BME280;65104;52.994;6.552;2023-07-20T12:16:16;101444.00;;;20.90;55.82
76297;BME280;65104;52.994;6.552;2023-07-20T12:18:42;101451.56;;;20.44;54.61
76297;BME280;65104;52.994;6.552;2023-07-20T12:21:09;101450.16;;;20.14;55.58
76297;BME280;65104;52.994;6.552;2023-07-20T12:23:45;101456.75;;;19.63;59.93
76297;BME280;65104;52.994;6.552;2023-07-20T12:26:10;101457.75;;;19.42;66.14
76297;BME280;65104;52.994;6.552;2023-07-20T12:28:39;101457.00;;;19.30;74.27
76297;BME280;65104;52.994;6.552;2023-07-20T12:31:07;101456.50;;;18.65;85.99
76297;BME280;65104;52.994;6.552;2023-07-20T12:33:32;101459.06;;;18.74;91.79
76297;BME280;65104;52.994;6.552;2023-07-20T12:35:57;101454.69;;;18.81;97.59
76297;BME280;65104;52.994;6.552;2023-07-20T12:38:24;101450.25;;;18.97;99.96
76297;BME280;65104;52.994;6.552;2023-07-20T12:40:50;101458.09;;;18.89;98.30
76297;BME280;65104;52.994;6.552;2023-07-20T12:43:16;101452.13;;;18.75;99.31
76297;BME280;65104;52.994;6.552;2023-07-20T12:45:42;101453.00;;;18.74;82.42
76297;BME280;65104;52.994;6.552;2023-07-20T12:48:08;101442.25;;;19.26;86.23
76297;BME280;65104;52.994;6.552;2023-07-20T12:50:33;101445.66;;;19.34;88.06
76297;BME280;65104;52.994;6.552;2023-07-20T12:52:59;101449.94;;;19.48;87.92
76297;BME280;65104;52.994;6.552;2023-07-20T12:55:24;101448.13;;;19.57;80.80
76297;BME280;65104;52.994;6.552;2023-07-20T12:57:50;101450.66;;;19.67;78.20
76297;BME280;65104;52.994;6.552;2023-07-20T13:00:16;101443.84;;;19.43;74.63
76297;BME280;65104;52.994;6.552;2023-07-20T13:02:42;101446.72;;;19.11;71.34
76297;BME280;65104;52.994;6.552;2023-07-20T13:05:08;101444.22;;;18.96;78.96